sensor_id;sensor_type;location;lat;lon;timestamp;P1;durP1;ratioP1;P2;durP2;ratioP2
62572;SDS011;48626;51.678;5.806;2022-09-09T00:02:22;5.57;;;2.60;;
62572;SDS011;48626;51.678;5.806;2022-09-09T00:04:58;6.88;;;2.50;;
62572;SDS011;48626;51.678;5.806;2022-09-09T00:15:43;3.97;;;2.58;;
62572;SDS011;48626;51.678;5.806;2022-09-09T00:18:15;9.18;;;2.55;;
62572;SDS011;48626;51.678;5.806;2022-09-09T00:21:06;5.32;;;2.50;;
62572;SDS011;48626;51.678;5.806;2022-09-09T00:23:51;7.40;;;2.90;;
62572;SDS011;48626;51.678;5.806;2022-09-09T00:26:38;3.95;;;2.40;;
62572;SDS011;48626;51.678;5.806;2022-09-09T00:29:17;6.55;;;2.70;;
62572;SDS011;48626;51.678;5.806;2022-09-09T00:32:00;6.35;;;2.60;;
62572;SDS011;48626;51.678;5.806;2022-09-09T00:34:36;4.30;;;2.60;;
62572;SDS011;48626;51.678;5.806;2022-09-09T00:37:08;5.88;;;3.05;;
62572;SDS011;48626;51.678;5.806;2022-09-09T00:39:34;5.40;;;3.05;;
62572;SDS011;48626;51.678;5.806;2022-09-09T00:42:15;4.65;;;3.20;;
62572;SDS011;48626;51.678;5.806;2022-09-09T00:44:52;5.07;;;2.80;;
62572;SDS011;48626;51.678;5.806;2022-09-09T00:47:38;6.10;;;2.97;;
62572;SDS011;48626;51.678;5.806;2022-09-09T00:53:05;8.00;;;3.10;;
62572;SDS011;48626;51.678;5.806;2022-09-09T00:56:00;5.93;;;2.85;;
62572;SDS011;48626;51.678;5.806;2022-09-09T00:58:40;7.10;;;3.10;;
62572;SDS011;48626;51.678;5.806;2022-09-09T01:01:09;7.87;;;3.40;;
62572;SDS011;48626;51.678;5.806;2022-09-09T01:03:43;9.53;;;3.67;;
62572;SDS011;48626;51.678;5.806;2022-09-09T01:06:37;4.53;;;3.25;;
62572;SDS011;48626;51.678;5.806;2022-09-09T01:09:17;4.38;;;3.13;;
62572;SDS011;48626;51.678;5.806;2022-09-09T01:14:38;4.80;;;2.97;;
62572;SDS011;48626;51.678;5.806;2022-09-09T01:17:11;6.65;;;3.58;;
62572;SDS011;48626;51.678;5.806;2022-09-09T01:27:50;5.18;;;3.20;;
62572;SDS011;48626;51.678;5.806;2022-09-09T01:30:19;6.40;;;3.00;;
62572;SDS011;48626;51.678;5.806;2022-09-09T01:32:47;4.53;;;2.90;;
62572;SDS011;48626;51.678;5.806;2022-09-09T01:38:22;6.32;;;3.05;;
62572;SDS011;48626;51.678;5.806;2022-09-09T01:40:50;8.45;;;3.00;;
62572;SDS011;48626;51.678;5.806;2022-09-09T01:43:22;6.65;;;3.17;;
62572;SDS011;48626;51.678;5.806;2022-09-09T01:45:49;8.07;;;3.28;;
62572;SDS011;48626;51.678;5.806;2022-09-09T01:48:19;6.72;;;3.28;;
62572;SDS011;48626;51.678;5.806;2022-09-09T01:50:46;7.30;;;3.30;;
62572;SDS011;48626;51.678;5.806;2022-09-09T01:53:12;7.53;;;3.38;;
62572;SDS011;48626;51.678;5.806;2022-09-09T01:55:41;6.72;;;3.10;;
62572;SDS011;48626;51.678;5.806;2022-09-09T02:01:50;5.75;;;3.20;;
62572;SDS011;48626;51.678;5.806;2022-09-09T02:07:15;4.93;;;3.30;;
62572;SDS011;48626;51.678;5.806;2022-09-09T02:09:47;8.07;;;3.42;;
62572;SDS011;48626;51.678;5.806;2022-09-09T02:12:17;6.50;;;3.50;;
62572;SDS011;48626;51.678;5.806;2022-09-09T02:14:47;12.55;;;3.50;;
62572;SDS011;48626;51.678;5.806;2022-09-09T02:17:24;7.75;;;3.58;;
62572;SDS011;48626;51.678;5.806;2022-09-09T02:19:59;7.63;;;3.75;;
62572;SDS011;48626;51.678;5.806;2022-09-09T02:22:37;7.13;;;3.60;;
62572;SDS011;48626;51.678;5.806;2022-09-09T02:25:07;6.85;;;3.55;;
62572;SDS011;48626;51.678;5.806;2022-09-09T02:27:35;8.43;;;3.38;;
62572;SDS011;48626;51.678;5.806;2022-09-09T02:30:01;11.20;;;3.53;;
62572;SDS011;48626;51.678;5.806;2022-09-09T02:32:29;8.30;;;3.50;;
62572;SDS011;48626;51.678;5.806;2022-09-09T02:35:08;12.73;;;3.88;;
62572;SDS011;48626;51.678;5.806;2022-09-09T02:37:37;11.70;;;3.50;;
62572;SDS011;48626;51.678;5.806;2022-09-09T02:40:07;7.75;;;4.55;;
62572;SDS011;48626;51.678;5.806;2022-09-09T02:42:41;10.23;;;3.58;;
62572;SDS011;48626;51.678;5.806;2022-09-09T02:45:10;7.63;;;3.50;;
62572;SDS011;48626;51.678;5.806;2022-09-09T02:48:03;7.03;;;3.47;;
62572;SDS011;48626;51.678;5.806;2022-09-09T02:50:33;8.93;;;3.88;;
62572;SDS011;48626;51.678;5.806;2022-09-09T02:56:19;12.50;;;3.95;;
62572;SDS011;48626;51.678;5.806;2022-09-09T02:58:48;8.65;;;3.47;;
62572;SDS011;48626;51.678;5.806;2022-09-09T03:01:16;11.93;;;3.72;;
62572;SDS011;48626;51.678;5.806;2022-09-09T03:03:42;5.72;;;3.50;;
62572;SDS011;48626;51.678;5.806;2022-09-09T03:06:09;6.22;;;3.53;;
62572;SDS011;48626;51.678;5.806;2022-09-09T03:08:36;6.18;;;3.90;;
62572;SDS011;48626;51.678;5.806;2022-09-09T03:11:02;10.30;;;3.92;;
62572;SDS011;48626;51.678;5.806;2022-09-09T03:13:28;14.13;;;4.40;;
62572;SDS011;48626;51.678;5.806;2022-09-09T03:15:54;14.10;;;4.25;;
62572;SDS011;48626;51.678;5.806;2022-09-09T03:18:19;14.40;;;4.07;;
62572;SDS011;48626;51.678;5.806;2022-09-09T03:20:45;14.27;;;4.05;;
62572;SDS011;48626;51.678;5.806;2022-09-09T03:23:13;8.02;;;4.20;;
62572;SDS011;48626;51.678;5.806;2022-09-09T03:25:39;12.93;;;3.83;;
62572;SDS011;48626;51.678;5.806;2022-09-09T03:28:11;11.63;;;4.20;;
62572;SDS011;48626;51.678;5.806;2022-09-09T03:30:36;12.57;;;4.18;;
62572;SDS011;48626;51.678;5.806;2022-09-09T03:33:02;6.70;;;3.90;;
62572;SDS011;48626;51.678;5.806;2022-09-09T03:35:28;8.18;;;3.92;;
62572;SDS011;48626;51.678;5.806;2022-09-09T03:37:54;9.90;;;3.95;;
62572;SDS011;48626;51.678;5.806;2022-09-09T03:40:20;10.20;;;4.20;;
62572;SDS011;48626;51.678;5.806;2022-09-09T03:42:46;15.00;;;4.40;;
62572;SDS011;48626;51.678;5.806;2022-09-09T03:45:13;13.55;;;4.20;;
62572;SDS011;48626;51.678;5.806;2022-09-09T03:47:39;10.75;;;4.22;;
62572;SDS011;48626;51.678;5.806;2022-09-09T03:50:05;13.40;;;3.90;;
62572;SDS011;48626;51.678;5.806;2022-09-09T03:52:38;12.82;;;4.55;;
62572;SDS011;48626;51.678;5.806;2022-09-09T03:55:06;9.18;;;4.40;;
62572;SDS011;48626;51.678;5.806;2022-09-09T03:57:32;8.95;;;4.50;;
62572;SDS011;48626;51.678;5.806;2022-09-09T04:00:00;12.07;;;4.60;;
62572;SDS011;48626;51.678;5.806;2022-09-09T04:02:28;9.57;;;4.25;;
62572;SDS011;48626;51.678;5.806;2022-09-09T04:04:53;12.07;;;4.88;;
62572;SDS011;48626;51.678;5.806;2022-09-09T04:07:19;11.50;;;4.57;;
62572;SDS011;48626;51.678;5.806;2022-09-09T04:09:45;8.48;;;4.20;;
62572;SDS011;48626;51.678;5.806;2022-09-09T04:12:10;9.80;;;4.00;;
62572;SDS011;48626;51.678;5.806;2022-09-09T04:14:38;11.00;;;4.00;;
62572;SDS011;48626;51.678;5.806;2022-09-09T04:17:04;9.15;;;4.32;;
62572;SDS011;48626;51.678;5.806;2022-09-09T04:19:31;10.52;;;4.55;;
62572;SDS011;48626;51.678;5.806;2022-09-09T04:21:57;10.55;;;4.70;;
62572;SDS011;48626;51.678;5.806;2022-09-09T04:24:23;12.57;;;5.05;;
62572;SDS011;48626;51.678;5.806;2022-09-09T04:26:50;13.35;;;4.55;;
62572;SDS011;48626;51.678;5.806;2022-09-09T04:29:16;11.80;;;4.43;;
62572;SDS011;48626;51.678;5.806;2022-09-09T04:31:41;13.93;;;4.40;;
62572;SDS011;48626;51.678;5.806;2022-09-09T04:34:08;10.82;;;4.40;;
62572;SDS011;48626;51.678;5.806;2022-09-09T04:36:34;10.52;;;4.70;;
62572;SDS011;48626;51.678;5.806;2022-09-09T04:39:00;14.15;;;4.45;;
62572;SDS011;48626;51.678;5.806;2022-09-09T04:41:26;11.95;;;4.60;;
62572;SDS011;48626;51.678;5.806;2022-09-09T04:43:52;12.13;;;4.18;;
62572;SDS011;48626;51.678;5.806;2022-09-09T04:46:18;13.98;;;4.60;;
62572;SDS011;48626;51.678;5.806;2022-09-09T04:48:45;13.70;;;4.85;;
62572;SDS011;48626;51.678;5.806;2022-09-09T04:51:11;9.35;;;4.15;;
62572;SDS011;48626;51.678;5.806;2022-09-09T04:53:38;9.60;;;4.32;;
62572;SDS011;48626;51.678;5.806;2022-09-09T04:56:06;12.60;;;4.20;;
62572;SDS011;48626;51.678;5.806;2022-09-09T04:58:35;13.60;;;4.15;;
62572;SDS011;48626;51.678;5.806;2022-09-09T05:01:12;13.27;;;4.13;;
62572;SDS011;48626;51.678;5.806;2022-09-09T05:03:39;9.30;;;4.15;;
62572;SDS011;48626;51.678;5.806;2022-09-09T05:08:38;10.48;;;4.07;;
62572;SDS011;48626;51.678;5.806;2022-09-09T05:11:15;12.88;;;4.13;;
62572;SDS011;48626;51.678;5.806;2022-09-09T05:13:45;10.98;;;4.10;;
62572;SDS011;48626;51.678;5.806;2022-09-09T05:16:12;12.68;;;4.28;;
62572;SDS011;48626;51.678;5.806;2022-09-09T05:18:39;15.68;;;4.18;;
62572;SDS011;48626;51.678;5.806;2022-09-09T05:21:05;16.77;;;4.60;;
62572;SDS011;48626;51.678;5.806;2022-09-09T05:23:32;13.95;;;4.78;;
62572;SDS011;48626;51.678;5.806;2022-09-09T05:25:59;11.57;;;3.65;;
62572;SDS011;48626;51.678;5.806;2022-09-09T05:28:25;11.75;;;4.10;;
62572;SDS011;48626;51.678;5.806;2022-09-09T05:31:02;15.02;;;3.88;;
62572;SDS011;48626;51.678;5.806;2022-09-09T05:33:33;12.00;;;3.72;;
62572;SDS011;48626;51.678;5.806;2022-09-09T05:36:00;13.43;;;4.20;;
62572;SDS011;48626;51.678;5.806;2022-09-09T05:38:29;10.45;;;3.70;;
62572;SDS011;48626;51.678;5.806;2022-09-09T05:40:56;12.90;;;4.05;;
62572;SDS011;48626;51.678;5.806;2022-09-09T05:43:22;14.82;;;3.85;;
62572;SDS011;48626;51.678;5.806;2022-09-09T05:45:57;18.02;;;4.45;;
62572;SDS011;48626;51.678;5.806;2022-09-09T05:48:38;13.10;;;3.50;;
62572;SDS011;48626;51.678;5.806;2022-09-09T05:51:06;10.57;;;3.75;;
62572;SDS011;48626;51.678;5.806;2022-09-09T05:53:33;11.93;;;4.40;;
62572;SDS011;48626;51.678;5.806;2022-09-09T05:56:03;13.75;;;4.50;;
62572;SDS011;48626;51.678;5.806;2022-09-09T05:58:33;12.13;;;3.78;;
62572;SDS011;48626;51.678;5.806;2022-09-09T06:01:09;14.00;;;3.65;;
62572;SDS011;48626;51.678;5.806;2022-09-09T06:03:37;11.95;;;3.90;;
62572;SDS011;48626;51.678;5.806;2022-09-09T06:06:05;12.88;;;4.13;;
62572;SDS011;48626;51.678;5.806;2022-09-09T06:08:40;12.70;;;4.03;;
62572;SDS011;48626;51.678;5.806;2022-09-09T06:11:10;16.67;;;3.92;;
62572;SDS011;48626;51.678;5.806;2022-09-09T06:13:38;19.60;;;4.13;;
62572;SDS011;48626;51.678;5.806;2022-09-09T06:16:08;16.35;;;4.35;;
62572;SDS011;48626;51.678;5.806;2022-09-09T06:18:36;10.43;;;3.78;;
62572;SDS011;48626;51.678;5.806;2022-09-09T06:21:03;11.27;;;3.67;;
62572;SDS011;48626;51.678;5.806;2022-09-09T06:23:31;22.40;;;4.10;;
62572;SDS011;48626;51.678;5.806;2022-09-09T06:26:04;10.35;;;3.92;;
62572;SDS011;48626;51.678;5.806;2022-09-09T06:28:31;14.07;;;4.38;;
62572;SDS011;48626;51.678;5.806;2022-09-09T06:30:58;16.88;;;4.40;;
62572;SDS011;48626;51.678;5.806;2022-09-09T06:33:24;18.02;;;4.63;;
62572;SDS011;48626;51.678;5.806;2022-09-09T06:35:51;21.42;;;4.82;;
62572;SDS011;48626;51.678;5.806;2022-09-09T06:38:18;14.13;;;4.50;;
62572;SDS011;48626;51.678;5.806;2022-09-09T06:40:50;15.18;;;4.60;;
62572;SDS011;48626;51.678;5.806;2022-09-09T06:43:17;16.33;;;4.70;;
62572;SDS011;48626;51.678;5.806;2022-09-09T06:45:52;15.88;;;4.78;;
62572;SDS011;48626;51.678;5.806;2022-09-09T06:48:23;12.25;;;4.43;;
62572;SDS011;48626;51.678;5.806;2022-09-09T06:50:51;10.02;;;4.78;;
62572;SDS011;48626;51.678;5.806;2022-09-09T06:53:26;26.38;;;5.28;;
62572;SDS011;48626;51.678;5.806;2022-09-09T06:55:52;13.57;;;4.63;;
62572;SDS011;48626;51.678;5.806;2022-09-09T06:58:19;19.63;;;4.95;;
62572;SDS011;48626;51.678;5.806;2022-09-09T07:00:47;17.00;;;4.80;;
62572;SDS011;48626;51.678;5.806;2022-09-09T07:03:13;16.77;;;5.45;;
62572;SDS011;48626;51.678;5.806;2022-09-09T07:05:38;14.70;;;4.95;;
62572;SDS011;48626;51.678;5.806;2022-09-09T07:08:04;12.60;;;4.85;;
62572;SDS011;48626;51.678;5.806;2022-09-09T07:10:30;22.85;;;5.50;;
62572;SDS011;48626;51.678;5.806;2022-09-09T07:12:56;16.27;;;4.72;;
62572;SDS011;48626;51.678;5.806;2022-09-09T07:15:22;16.60;;;5.30;;
62572;SDS011;48626;51.678;5.806;2022-09-09T07:17:48;32.60;;;4.88;;
62572;SDS011;48626;51.678;5.806;2022-09-09T07:20:14;17.88;;;5.25;;
62572;SDS011;48626;51.678;5.806;2022-09-09T07:22:40;19.50;;;4.75;;
62572;SDS011;48626;51.678;5.806;2022-09-09T07:25:06;14.80;;;4.82;;
62572;SDS011;48626;51.678;5.806;2022-09-09T07:27:32;19.33;;;5.20;;
62572;SDS011;48626;51.678;5.806;2022-09-09T07:29:58;15.60;;;4.97;;
62572;SDS011;48626;51.678;5.806;2022-09-09T07:32:24;17.35;;;5.13;;
62572;SDS011;48626;51.678;5.806;2022-09-09T07:34:50;21.20;;;5.50;;
62572;SDS011;48626;51.678;5.806;2022-09-09T07:37:16;19.33;;;4.70;;
62572;SDS011;48626;51.678;5.806;2022-09-09T07:39:42;14.32;;;5.40;;
62572;SDS011;48626;51.678;5.806;2022-09-09T07:42:08;18.02;;;4.70;;
62572;SDS011;48626;51.678;5.806;2022-09-09T07:44:36;20.15;;;4.68;;
62572;SDS011;48626;51.678;5.806;2022-09-09T07:47:04;18.55;;;4.72;;
62572;SDS011;48626;51.678;5.806;2022-09-09T07:49:30;15.57;;;5.85;;
62572;SDS011;48626;51.678;5.806;2022-09-09T07:51:57;20.50;;;4.53;;
62572;SDS011;48626;51.678;5.806;2022-09-09T07:54:23;15.00;;;4.32;;
62572;SDS011;48626;51.678;5.806;2022-09-09T07:56:49;17.20;;;4.80;;
62572;SDS011;48626;51.678;5.806;2022-09-09T07:59:15;14.32;;;4.50;;
62572;SDS011;48626;51.678;5.806;2022-09-09T08:01:43;12.77;;;4.40;;
62572;SDS011;48626;51.678;5.806;2022-09-09T08:04:12;20.95;;;4.60;;
62572;SDS011;48626;51.678;5.806;2022-09-09T08:06:46;15.45;;;5.03;;
62572;SDS011;48626;51.678;5.806;2022-09-09T08:09:19;15.95;;;4.20;;
62572;SDS011;48626;51.678;5.806;2022-09-09T08:11:45;16.75;;;4.25;;
62572;SDS011;48626;51.678;5.806;2022-09-09T08:14:12;12.75;;;4.13;;
62572;SDS011;48626;51.678;5.806;2022-09-09T08:16:39;17.65;;;3.83;;
62572;SDS011;48626;51.678;5.806;2022-09-09T08:19:07;19.27;;;3.97;;
62572;SDS011;48626;51.678;5.806;2022-09-09T08:21:33;11.02;;;3.45;;
62572;SDS011;48626;51.678;5.806;2022-09-09T08:24:02;14.88;;;3.55;;
62572;SDS011;48626;51.678;5.806;2022-09-09T08:26:34;13.23;;;3.30;;
62572;SDS011;48626;51.678;5.806;2022-09-09T08:29:02;15.88;;;4.32;;
62572;SDS011;48626;51.678;5.806;2022-09-09T08:31:30;11.73;;;3.45;;
62572;SDS011;48626;51.678;5.806;2022-09-09T08:34:05;13.88;;;3.42;;
62572;SDS011;48626;51.678;5.806;2022-09-09T08:36:32;9.38;;;3.25;;
62572;SDS011;48626;51.678;5.806;2022-09-09T08:41:53;11.82;;;3.13;;
62572;SDS011;48626;51.678;5.806;2022-09-09T08:47:13;13.27;;;3.00;;
62572;SDS011;48626;51.678;5.806;2022-09-09T08:50:04;10.63;;;3.22;;
62572;SDS011;48626;51.678;5.806;2022-09-09T08:55:53;11.88;;;3.53;;
62572;SDS011;48626;51.678;5.806;2022-09-09T08:58:27;13.20;;;3.20;;
62572;SDS011;48626;51.678;5.806;2022-09-09T09:01:17;10.23;;;3.03;;
62572;SDS011;48626;51.678;5.806;2022-09-09T09:10:16;11.95;;;3.00;;
62572;SDS011;48626;51.678;5.806;2022-09-09T09:12:43;15.32;;;3.17;;
62572;SDS011;48626;51.678;5.806;2022-09-09T09:17:47;16.08;;;3.53;;
62572;SDS011;48626;51.678;5.806;2022-09-09T09:20:14;13.15;;;3.00;;
62572;SDS011;48626;51.678;5.806;2022-09-09T09:22:51;11.18;;;3.00;;
62572;SDS011;48626;51.678;5.806;2022-09-09T09:25:21;14.82;;;3.20;;
62572;SDS011;48626;51.678;5.806;2022-09-09T09:27:50;11.50;;;2.95;;
62572;SDS011;48626;51.678;5.806;2022-09-09T09:30:26;7.10;;;2.50;;
62572;SDS011;48626;51.678;5.806;2022-09-09T09:33:01;11.15;;;2.85;;
62572;SDS011;48626;51.678;5.806;2022-09-09T09:35:30;13.43;;;2.92;;
62572;SDS011;48626;51.678;5.806;2022-09-09T09:37:56;12.48;;;2.92;;
62572;SDS011;48626;51.678;5.806;2022-09-09T09:40:22;10.27;;;2.75;;
62572;SDS011;48626;51.678;5.806;2022-09-09T09:42:52;11.23;;;2.72;;
62572;SDS011;48626;51.678;5.806;2022-09-09T09:45:31;10.23;;;2.60;;
62572;SDS011;48626;51.678;5.806;2022-09-09T09:50:30;10.00;;;2.72;;
62572;SDS011;48626;51.678;5.806;2022-09-09T09:52:57;8.63;;;2.70;;
62572;SDS011;48626;51.678;5.806;2022-09-09T09:55:31;7.70;;;2.65;;
62572;SDS011;48626;51.678;5.806;2022-09-09T09:58:04;9.90;;;2.67;;
62572;SDS011;48626;51.678;5.806;2022-09-09T10:00:31;8.15;;;2.85;;
62572;SDS011;48626;51.678;5.806;2022-09-09T10:02:59;10.77;;;2.97;;
62572;SDS011;48626;51.678;5.806;2022-09-09T10:05:26;10.27;;;2.95;;
62572;SDS011;48626;51.678;5.806;2022-09-09T10:13:55;11.65;;;2.72;;
62572;SDS011;48626;51.678;5.806;2022-09-09T10:19:30;8.15;;;2.33;;
62572;SDS011;48626;51.678;5.806;2022-09-09T10:35:34;19.52;;;3.00;;
62572;SDS011;48626;51.678;5.806;2022-09-09T10:38:15;6.85;;;2.40;;
62572;SDS011;48626;51.678;5.806;2022-09-09T10:46:05;7.63;;;2.60;;
62572;SDS011;48626;51.678;5.806;2022-09-09T10:57:46;6.10;;;2.28;;
62572;SDS011;48626;51.678;5.806;2022-09-09T11:02:55;11.80;;;2.67;;
62572;SDS011;48626;51.678;5.806;2022-09-09T11:05:27;8.45;;;2.78;;
62572;SDS011;48626;51.678;5.806;2022-09-09T11:08:10;13.02;;;3.00;;
62572;SDS011;48626;51.678;5.806;2022-09-09T11:11:01;7.10;;;2.33;;
62572;SDS011;48626;51.678;5.806;2022-09-09T11:13:49;10.60;;;2.65;;
62572;SDS011;48626;51.678;5.806;2022-09-09T11:22:01;7.45;;;2.72;;
62572;SDS011;48626;51.678;5.806;2022-09-09T11:24:33;8.95;;;2.70;;
62572;SDS011;48626;51.678;5.806;2022-09-09T11:27:21;10.73;;;2.67;;
62572;SDS011;48626;51.678;5.806;2022-09-09T11:32:37;9.70;;;3.00;;
62572;SDS011;48626;51.678;5.806;2022-09-09T11:40:45;8.32;;;2.90;;
62572;SDS011;48626;51.678;5.806;2022-09-09T11:43:17;12.52;;;3.10;;
62572;SDS011;48626;51.678;5.806;2022-09-09T11:45:59;9.13;;;2.83;;
62572;SDS011;48626;51.678;5.806;2022-09-09T11:48:37;12.95;;;3.40;;
62572;SDS011;48626;51.678;5.806;2022-09-09T11:53:53;8.32;;;3.10;;
62572;SDS011;48626;51.678;5.806;2022-09-09T11:56:29;5.90;;;2.70;;
62572;SDS011;48626;51.678;5.806;2022-09-09T12:01:35;4.82;;;2.33;;
62572;SDS011;48626;51.678;5.806;2022-09-09T12:12:43;8.90;;;2.50;;
62572;SDS011;48626;51.678;5.806;2022-09-09T12:15:01;6.80;;;2.42;;
62572;SDS011;48626;51.678;5.806;2022-09-09T12:17:46;5.70;;;2.45;;
62572;SDS011;48626;51.678;5.806;2022-09-09T12:26:05;7.53;;;2.30;;
62572;SDS011;48626;51.678;5.806;2022-09-09T12:34:10;9.55;;;2.42;;
62572;SDS011;48626;51.678;5.806;2022-09-09T12:36:38;10.07;;;2.60;;
62572;SDS011;48626;51.678;5.806;2022-09-09T12:39:27;6.43;;;2.53;;
62572;SDS011;48626;51.678;5.806;2022-09-09T12:41:58;7.93;;;2.92;;
62572;SDS011;48626;51.678;5.806;2022-09-09T12:44:25;8.93;;;3.20;;
62572;SDS011;48626;51.678;5.806;2022-09-09T12:46:53;9.20;;;2.72;;
62572;SDS011;48626;51.678;5.806;2022-09-09T12:51:56;8.60;;;3.00;;
62572;SDS011;48626;51.678;5.806;2022-09-09T12:54:22;10.98;;;3.13;;
62572;SDS011;48626;51.678;5.806;2022-09-09T12:56:48;5.75;;;2.53;;
62572;SDS011;48626;51.678;5.806;2022-09-09T12:59:25;7.45;;;2.70;;
62572;SDS011;48626;51.678;5.806;2022-09-09T13:01:58;7.45;;;2.92;;
62572;SDS011;48626;51.678;5.806;2022-09-09T13:04:24;11.70;;;3.00;;
62572;SDS011;48626;51.678;5.806;2022-09-09T13:06:50;7.43;;;2.83;;
62572;SDS011;48626;51.678;5.806;2022-09-09T13:09:17;7.65;;;2.72;;
62572;SDS011;48626;51.678;5.806;2022-09-09T13:11:47;8.43;;;2.90;;
62572;SDS011;48626;51.678;5.806;2022-09-09T13:14:21;6.25;;;2.53;;
62572;SDS011;48626;51.678;5.806;2022-09-09T13:16:58;6.63;;;2.60;;
62572;SDS011;48626;51.678;5.806;2022-09-09T13:19:25;9.75;;;2.78;;
62572;SDS011;48626;51.678;5.806;2022-09-09T13:21:53;8.23;;;2.75;;
62572;SDS011;48626;51.678;5.806;2022-09-09T13:24:37;10.00;;;3.03;;
62572;SDS011;48626;51.678;5.806;2022-09-09T13:27:25;6.22;;;2.95;;
62572;SDS011;48626;51.678;5.806;2022-09-09T13:29:53;5.20;;;2.50;;
62572;SDS011;48626;51.678;5.806;2022-09-09T13:32:21;10.18;;;2.83;;
62572;SDS011;48626;51.678;5.806;2022-09-09T13:34:51;7.25;;;2.83;;
62572;SDS011;48626;51.678;5.806;2022-09-09T13:37:37;12.00;;;2.80;;
62572;SDS011;48626;51.678;5.806;2022-09-09T13:40:06;7.50;;;2.85;;
62572;SDS011;48626;51.678;5.806;2022-09-09T13:42:42;10.35;;;2.67;;
62572;SDS011;48626;51.678;5.806;2022-09-09T13:45:19;13.77;;;3.58;;
62572;SDS011;48626;51.678;5.806;2022-09-09T13:47:51;17.00;;;3.58;;
62572;SDS011;48626;51.678;5.806;2022-09-09T13:50:24;33.00;;;4.60;;
62572;SDS011;48626;51.678;5.806;2022-09-09T13:52:54;26.42;;;4.43;;
62572;SDS011;48626;51.678;5.806;2022-09-09T13:55:23;12.85;;;3.63;;
62572;SDS011;48626;51.678;5.806;2022-09-09T13:57:57;9.88;;;3.90;;
62572;SDS011;48626;51.678;5.806;2022-09-09T14:00:31;12.88;;;3.83;;
62572;SDS011;48626;51.678;5.806;2022-09-09T14:02:58;9.98;;;3.65;;
62572;SDS011;48626;51.678;5.806;2022-09-09T14:05:28;8.80;;;3.35;;
62572;SDS011;48626;51.678;5.806;2022-09-09T14:07:57;10.68;;;4.00;;
62572;SDS011;48626;51.678;5.806;2022-09-09T14:10:23;13.18;;;3.92;;
62572;SDS011;48626;51.678;5.806;2022-09-09T14:12:49;12.27;;;3.20;;
62572;SDS011;48626;51.678;5.806;2022-09-09T14:15:14;9.32;;;3.17;;
62572;SDS011;48626;51.678;5.806;2022-09-09T14:17:41;13.05;;;3.95;;
62572;SDS011;48626;51.678;5.806;2022-09-09T14:20:07;13.55;;;3.50;;
62572;SDS011;48626;51.678;5.806;2022-09-09T14:22:34;10.60;;;3.60;;
62572;SDS011;48626;51.678;5.806;2022-09-09T14:25:01;6.13;;;3.33;;
62572;SDS011;48626;51.678;5.806;2022-09-09T14:27:28;10.50;;;3.80;;
62572;SDS011;48626;51.678;5.806;2022-09-09T14:29:55;9.82;;;3.60;;
62572;SDS011;48626;51.678;5.806;2022-09-09T14:32:21;8.23;;;3.60;;
62572;SDS011;48626;51.678;5.806;2022-09-09T14:34:46;10.82;;;4.18;;
62572;SDS011;48626;51.678;5.806;2022-09-09T14:37:14;11.68;;;3.58;;
62572;SDS011;48626;51.678;5.806;2022-09-09T14:39:41;8.45;;;3.20;;
62572;SDS011;48626;51.678;5.806;2022-09-09T14:42:09;9.25;;;3.03;;
62572;SDS011;48626;51.678;5.806;2022-09-09T14:44:36;9.43;;;3.20;;
62572;SDS011;48626;51.678;5.806;2022-09-09T14:47:03;6.47;;;2.92;;
62572;SDS011;48626;51.678;5.806;2022-09-09T14:49:33;7.75;;;2.80;;
62572;SDS011;48626;51.678;5.806;2022-09-09T14:51:59;8.00;;;2.90;;
62572;SDS011;48626;51.678;5.806;2022-09-09T14:54:24;7.40;;;2.80;;
62572;SDS011;48626;51.678;5.806;2022-09-09T14:56:50;6.65;;;2.65;;
62572;SDS011;48626;51.678;5.806;2022-09-09T14:59:16;8.75;;;2.92;;
62572;SDS011;48626;51.678;5.806;2022-09-09T15:01:41;8.32;;;3.25;;
62572;SDS011;48626;51.678;5.806;2022-09-09T15:04:07;6.65;;;2.95;;
62572;SDS011;48626;51.678;5.806;2022-09-09T15:06:36;9.75;;;3.33;;
62572;SDS011;48626;51.678;5.806;2022-09-09T15:09:04;8.35;;;3.17;;
62572;SDS011;48626;51.678;5.806;2022-09-09T15:11:31;8.90;;;3.03;;
62572;SDS011;48626;51.678;5.806;2022-09-09T15:14:02;8.15;;;2.65;;
62572;SDS011;48626;51.678;5.806;2022-09-09T15:16:29;9.27;;;3.00;;
62572;SDS011;48626;51.678;5.806;2022-09-09T15:18:56;8.82;;;2.83;;
62572;SDS011;48626;51.678;5.806;2022-09-09T15:21:24;8.98;;;2.97;;
62572;SDS011;48626;51.678;5.806;2022-09-09T15:23:54;9.00;;;2.70;;
62572;SDS011;48626;51.678;5.806;2022-09-09T15:26:20;6.70;;;2.88;;
62572;SDS011;48626;51.678;5.806;2022-09-09T15:28:47;15.60;;;3.22;;
62572;SDS011;48626;51.678;5.806;2022-09-09T15:31:21;7.50;;;2.80;;
62572;SDS011;48626;51.678;5.806;2022-09-09T15:33:49;6.20;;;2.83;;
62572;SDS011;48626;51.678;5.806;2022-09-09T15:36:18;11.18;;;2.78;;
62572;SDS011;48626;51.678;5.806;2022-09-09T15:38:45;7.32;;;2.60;;
62572;SDS011;48626;51.678;5.806;2022-09-09T15:41:12;10.13;;;2.92;;
62572;SDS011;48626;51.678;5.806;2022-09-09T15:43:38;11.23;;;3.17;;
62572;SDS011;48626;51.678;5.806;2022-09-09T15:48:42;7.25;;;2.88;;
62572;SDS011;48626;51.678;5.806;2022-09-09T15:51:12;5.90;;;2.75;;
62572;SDS011;48626;51.678;5.806;2022-09-09T15:53:38;9.13;;;3.10;;
62572;SDS011;48626;51.678;5.806;2022-09-09T15:56:05;10.15;;;3.03;;
62572;SDS011;48626;51.678;5.806;2022-09-09T15:58:32;49.53;;;4.43;;
62572;SDS011;48626;51.678;5.806;2022-09-09T16:01:01;10.82;;;3.20;;
62572;SDS011;48626;51.678;5.806;2022-09-09T16:03:34;7.32;;;2.30;;
62572;SDS011;48626;51.678;5.806;2022-09-09T16:06:05;7.43;;;2.15;;
62572;SDS011;48626;51.678;5.806;2022-09-09T16:08:41;5.88;;;2.10;;
62572;SDS011;48626;51.678;5.806;2022-09-09T16:11:12;5.18;;;2.05;;
62572;SDS011;48626;51.678;5.806;2022-09-09T16:13:41;7.25;;;1.92;;
62572;SDS011;48626;51.678;5.806;2022-09-09T16:16:08;3.20;;;1.58;;
62572;SDS011;48626;51.678;5.806;2022-09-09T16:18:36;3.40;;;1.90;;
62572;SDS011;48626;51.678;5.806;2022-09-09T16:21:04;5.00;;;2.15;;
62572;SDS011;48626;51.678;5.806;2022-09-09T16:23:34;3.70;;;2.10;;
62572;SDS011;48626;51.678;5.806;2022-09-09T16:26:00;6.97;;;2.27;;
62572;SDS011;48626;51.678;5.806;2022-09-09T16:28:27;4.63;;;2.15;;
62572;SDS011;48626;51.678;5.806;2022-09-09T16:30:53;6.22;;;2.15;;
62572;SDS011;48626;51.678;5.806;2022-09-09T16:33:19;3.03;;;1.98;;
62572;SDS011;48626;51.678;5.806;2022-09-09T16:35:45;3.05;;;1.92;;
62572;SDS011;48626;51.678;5.806;2022-09-09T16:38:10;2.83;;;1.80;;
62572;SDS011;48626;51.678;5.806;2022-09-09T16:40:37;4.03;;;2.03;;
62572;SDS011;48626;51.678;5.806;2022-09-09T16:43:03;6.82;;;2.17;;
62572;SDS011;48626;51.678;5.806;2022-09-09T16:45:30;4.32;;;1.98;;
62572;SDS011;48626;51.678;5.806;2022-09-09T16:47:57;2.90;;;1.80;;
62572;SDS011;48626;51.678;5.806;2022-09-09T16:50:23;4.30;;;2.00;;
62572;SDS011;48626;51.678;5.806;2022-09-09T16:52:48;6.82;;;2.33;;
62572;SDS011;48626;51.678;5.806;2022-09-09T16:55:15;7.15;;;2.40;;
62572;SDS011;48626;51.678;5.806;2022-09-09T16:57:41;5.13;;;2.30;;
62572;SDS011;48626;51.678;5.806;2022-09-09T17:00:07;4.63;;;2.40;;
62572;SDS011;48626;51.678;5.806;2022-09-09T17:02:33;5.50;;;2.17;;
62572;SDS011;48626;51.678;5.806;2022-09-09T17:04:59;5.40;;;2.60;;
62572;SDS011;48626;51.678;5.806;2022-09-09T17:07:24;6.05;;;2.55;;
62572;SDS011;48626;51.678;5.806;2022-09-09T17:09:50;5.80;;;2.50;;
62572;SDS011;48626;51.678;5.806;2022-09-09T17:12:18;6.20;;;2.92;;
62572;SDS011;48626;51.678;5.806;2022-09-09T17:14:43;6.88;;;2.50;;
62572;SDS011;48626;51.678;5.806;2022-09-09T17:17:10;9.05;;;3.10;;
62572;SDS011;48626;51.678;5.806;2022-09-09T17:19:36;5.80;;;2.90;;